Time;durP1;ratioP1;P1;durP2;ratioP2;P2;SDS_P1;SDS_P2;PMS_P1;PMS_P2;Temp;Humidity;BMP_temperature;BMP_pressure;BME280_temperature;BME280_humidity;BME280_pressure;Samples;Min_cycle;Max_cycle;Signal;HPM_P1;HPM_P2
2023/10/28 00:00:53;;;;;;;5.28;2.80;;;;;;;18.76;57.91;98325.69;4979320;28;20069;-90
2023/10/28 00:03:20;;;;;;;7.57;2.33;;;;;;;18.67;58.13;98321.50;4979384;28;20042;-90
2023/10/28 00:05:46;;;;;;;4.82;2.40;;;;;;;18.66;58.25;98326.19;4979111;28;20390;-90
2023/10/28 00:08:11;;;;;;;8.57;3.17;;;;;;;18.63;57.93;98335.03;4963695;28;20033;-90
2023/10/28 00:10:37;;;;;;;10.23;3.28;;;;;;;18.49;58.45;98308.19;4995860;28;20485;-90
2023/10/28 00:13:04;;;;;;;4.65;2.88;;;;;;;18.65;58.56;98345.59;4963396;28;20022;-91
2023/10/28 00:15:30;;;;;;;5.20;3.10;;;;;;;18.50;58.78;98330.78;4963849;28;20088;-91
2023/10/28 00:17:57;;;;;;;4.60;2.70;;;;;;;18.49;59.02;98337.38;4995375;28;20105;-90
2023/10/28 00:20:22;;;;;;;9.30;2.80;;;;;;;18.57;58.46;98356.34;4962685;28;20054;-89
2023/10/28 00:22:53;;;;;;;9.90;2.83;;;;;;;18.41;58.81;98330.94;4979266;28;20030;-90
2023/10/28 00:25:19;;;;;;;8.90;2.80;;;;;;;18.43;58.93;98339.56;4979795;28;20116;-91
2023/10/28 00:27:45;;;;;;;5.53;2.70;;;;;;;18.37;59.17;98349.13;4963597;28;20033;-90
2023/10/28 00:30:11;;;;;;;4.80;2.60;;;;;;;18.37;59.32;98347.19;4962532;28;20477;-89
2023/10/28 00:32:37;;;;;;;6.18;3.03;;;;;;;18.44;59.31;98362.16;4963918;28;20034;-90
2023/10/28 00:35:07;;;;;;;11.15;3.10;;;;;;;18.28;59.51;98341.09;4978625;28;20018;-91
2023/10/28 00:37:35;;;;;;;4.43;2.60;;;;;;;18.25;59.52;98336.31;4962197;28;20404;-90
2023/10/28 00:40:01;;;;;;;7.30;3.20;;;;;;;18.26;59.63;98332.47;4979161;28;20088;-90
2023/10/28 00:42:26;;;;;;;6.28;2.75;;;;;;;18.30;59.51;98347.00;4978763;28;20443;-90
2023/10/28 00:44:54;;;;;;;8.63;3.15;;;;;;;18.27;59.84;98344.94;4962034;28;20029;-90
2023/10/28 00:47:22;;;;;;;5.78;2.85;;;;;;;18.21;59.92;98332.69;4962835;28;20490;-91
2023/10/28 00:49:52;;;;;;;7.40;2.70;;;;;;;18.14;59.82;98330.56;4962489;28;20026;-90
2023/10/28 00:52:19;;;;;;;8.20;2.90;;;;;;;18.16;60.09;98330.22;4979210;28;20026;-90
2023/10/28 00:54:47;;;;;;;7.70;2.65;;;;;;;18.16;60.03;98341.13;4978575;28;20045;-91
2023/10/28 00:57:17;;;;;;;4.75;2.33;;;;;;;18.11;59.63;98339.41;4962766;28;20034;-92
2023/10/28 00:59:43;;;;;;;6.78;2.70;;;;;;;18.05;60.26;98326.38;4962904;28;20022;-91
2023/10/28 01:02:10;;;;;;;6.72;2.67;;;;;;;18.07;60.07;98333.06;4979577;28;20093;-92
2023/10/28 01:04:36;;;;;;;4.20;2.25;;;;;;;18.12;60.32;98335.56;4962560;28;20366;-91
2023/10/28 01:07:02;;;;;;;4.35;2.70;;;;;;;17.98;60.21;98316.84;4963336;28;20026;-92
2023/10/28 01:09:28;;;;;;;5.85;2.45;;;;;;;18.04;60.17;98325.59;4979591;28;20382;-94
2023/10/28 01:11:54;;;;;;;5.88;2.67;;;;;;;18.06;60.61;98331.47;4963810;28;20025;-93
2023/10/28 01:14:20;;;;;;;4.75;2.63;;;;;;;17.97;60.91;98344.41;4962580;28;20036;-94
2023/10/28 01:16:46;;;;;;;5.40;2.55;;;;;;;17.87;61.12;98332.09;4963775;28;20061;-92
2023/10/28 01:19:11;;;;;;;5.47;2.47;;;;;;;17.84;61.08;98338.19;4964372;28;20475;-92
2023/10/28 01:21:37;;;;;;;4.82;2.92;;;;;;;17.87;61.38;98342.97;4963098;28;20006;-93
2023/10/28 01:24:03;;;;;;;6.53;3.20;;;;;;;17.90;61.22;98353.19;4963575;28;20057;-96
2023/10/28 01:26:29;;;;;;;8.77;3.45;;;;;;;17.85;61.49;98345.25;4963262;28;20054;-95
2023/10/28 01:28:55;;;;;;;5.53;3.05;;;;;;;17.78;61.63;98336.81;4964056;28;20044;-94
2023/10/28 01:31:23;;;;;;;10.00;3.50;;;;;;;17.81;61.73;98348.97;4963708;28;20465;-94
2023/10/28 01:33:49;;;;;;;6.30;3.03;;;;;;;17.75;62.08;98345.69;4963365;28;20034;-94
2023/10/28 01:36:17;;;;;;;7.38;2.67;;;;;;;17.69;61.95;98345.09;4962674;28;20061;-95
2023/10/28 01:38:44;;;;;;;7.75;3.05;;;;;;;17.68;62.26;98346.25;4963189;28;20055;-96
2023/10/28 01:41:13;;;;;;;8.48;3.28;;;;;;;17.53;62.71;98339.53;4963559;28;20022;-95
2023/10/28 01:43:40;;;;;;;4.90;2.70;;;;;;;17.48;63.01;98350.66;4964668;28;20022;-95
2023/10/28 01:46:06;;;;;;;7.43;3.03;;;;;;;17.45;63.75;98361.44;4963588;28;20033;-94
2023/10/28 01:48:32;;;;;;;7.22;2.97;;;;;;;17.38;63.74;98342.94;4963870;28;20019;-95
2023/10/28 01:50:57;;;;;;;8.00;3.13;;;;;;;17.36;63.75;98348.72;4962526;28;20030;-94
2023/10/28 01:53:24;;;;;;;5.50;2.78;;;;;;;17.29;64.06;98355.88;4963174;28;20044;-94
2023/10/28 01:55:50;;;;;;;6.32;2.67;;;;;;;17.16;64.37;98336.81;4962261;28;20030;-95
2023/10/28 01:58:17;;;;;;;6.90;2.67;;;;;;;17.26;64.19;98354.59;4979230;28;20037;-94
2023/10/28 02:00:43;;;;;;;6.97;3.20;;;;;;;17.15;64.38;98350.75;4963659;28;20125;-94
2023/10/28 02:03:11;;;;;;;7.40;2.60;;;;;;;17.05;64.13;98337.56;4963169;28;20065;-94
2023/10/28 02:05:38;;;;;;;10.20;2.65;;;;;;;17.12;64.23;98348.66;4963418;28;20034;-95
2023/10/28 02:08:04;;;;;;;5.20;2.67;;;;;;;17.16;63.87;98353.13;4962667;28;20041;-94
2023/10/28 02:10:29;;;;;;;7.28;2.28;;;;;;;17.09;64.28;98347.44;4963325;28;20027;-95
2023/10/28 02:12:55;;;;;;;6.72;3.03;;;;;;;17.09;64.00;98350.16;4963454;28;20073;-95
2023/10/28 02:15:21;;;;;;;8.40;2.75;;;;;;;17.20;64.08;98374.19;4963356;28;20034;-95
2023/10/28 02:17:47;;;;;;;5.25;3.20;;;;;;;17.13;64.04;98380.19;4978189;28;20074;-94
2023/10/28 02:20:13;;;;;;;8.93;2.70;;;;;;;17.16;64.13;98384.94;4963029;28;20117;-95
2023/10/28 02:22:39;;;;;;;6.68;2.45;;;;;;;17.16;63.99;98390.38;4962787;28;20041;-95
2023/10/28 02:25:08;;;;;;;5.88;2.95;;;;;;;17.04;64.40;98387.66;4962800;28;20480;-94
2023/10/28 02:27:34;;;;;;;6.65;3.40;;;;;;;17.03;64.61;98395.00;4962053;28;20027;-95
2023/10/28 02:30:00;;;;;;;8.38;2.80;;;;;;;17.00;64.81;98395.69;4979737;28;20034;-95
2023/10/28 02:32:26;;;;;;;10.32;3.22;;;;;;;17.01;64.81;98404.63;4962433;28;20069;-96
2023/10/28 02:34:51;;;;;;;8.07;2.90;;;;;;;16.91;65.21;98400.41;4963578;28;20026;-95
2023/10/28 02:37:17;;;;;;;5.70;2.78;;;;;;;16.75;65.00;98376.53;4962132;28;20065;-96
2023/10/28 02:39:43;;;;;;;8.80;3.25;;;;;;;16.95;65.18;98409.47;4962618;28;20030;-95
2023/10/28 02:42:11;;;;;;;14.10;2.58;;;;;;;16.86;65.25;98401.41;4964032;28;20034;-96
2023/10/28 02:44:37;;;;;;;7.93;3.05;;;;;;;16.83;65.80;98404.00;4982875;28;20026;-95
2023/10/28 02:47:03;;;;;;;7.13;2.70;;;;;;;16.89;65.42;98424.41;4965769;28;20058;-96
2023/10/28 02:49:29;;;;;;;8.38;2.90;;;;;;;16.76;65.63;98416.16;4966234;28;20026;-96
2023/10/28 02:55:17;;;;;;;8.68;2.88;;;;;;;16.81;65.87;98445.13;4998939;28;20136;-95
2023/10/28 02:57:45;;;;;;;5.95;2.47;;;;;;;16.63;66.09;98419.19;4965757;28;20586;-95
2023/10/28 03:00:11;;;;;;;4.72;2.60;;;;;;;16.44;66.41;98406.06;4966463;28;20035;-94
2023/10/28 03:02:37;;;;;;;5.20;2.53;;;;;;;16.44;66.89;98419.66;4966139;28;20042;-95
2023/10/28 03:05:05;;;;;;;6.30;3.25;;;;;;;16.47;67.52;98435.28;4965355;28;20459;-95
2023/10/28 03:07:32;;;;;;;5.50;2.75;;;;;;;16.36;67.78;98421.28;4968067;28;20027;-96
2023/10/28 03:10:00;;;;;;;5.10;3.42;;;;;;;16.34;67.17;98421.59;4966712;28;20461;-96
2023/10/28 03:12:34;;;;;;;4.93;2.63;;;;;;;16.32;67.14;98432.00;4965799;28;20041;-95
2023/10/28 03:14:59;;;;;;;9.30;2.92;;;;;;;16.36;67.50;98434.88;4965995;28;20037;-95
2023/10/28 03:17:28;;;;;;;7.10;2.67;;;;;;;16.28;67.55;98424.84;4965360;28;20034;-93
2023/10/28 03:19:54;;;;;;;6.38;2.90;;;;;;;16.30;67.29;98436.97;4966805;28;20038;-95
2023/10/28 03:22:19;;;;;;;4.43;2.65;;;;;;;16.28;67.51;98443.88;4966108;28;20034;-95
2023/10/28 03:24:45;;;;;;;6.30;2.67;;;;;;;16.26;67.67;98433.31;4965474;28;20033;-95
2023/10/28 03:27:10;;;;;;;6.15;2.63;;;;;;;16.16;67.53;98431.81;4965613;28;20506;-94
2023/10/28 03:29:41;;;;;;;4.90;2.92;;;;;;;16.28;67.44;98457.44;4966055;28;20026;-94
2023/10/28 03:32:09;;;;;;;3.83;2.72;;;;;;;16.20;67.81;98444.72;4966832;28;20026;-94
2023/10/28 03:34:34;;;;;;;6.05;2.70;;;;;;;16.20;67.44;98450.94;4966446;28;20045;-93
2023/10/28 03:37:00;;;;;;;9.38;2.97;;;;;;;16.16;67.39;98444.56;4981542;28;20030;-94
2023/10/28 03:39:28;;;;;;;9.95;3.35;;;;;;;16.05;67.91;98437.94;4965293;28;20455;-94
2023/10/28 03:41:54;;;;;;;7.38;3.60;;;;;;;16.03;67.70;98448.31;4965557;28;20022;-93
2023/10/28 03:44:20;;;;;;;5.78;3.70;;;;;;;16.06;68.03;98453.91;4966281;28;20066;-94
2023/10/28 03:46:46;;;;;;;7.25;3.97;;;;;;;16.05;68.05;98465.09;4965958;28;20026;-96
2023/10/28 03:49:14;;;;;;;11.57;3.70;;;;;;;15.97;67.87;98464.00;4965259;28;20041;-94
2023/10/28 03:51:45;;;;;;;8.00;3.58;;;;;;;16.03;67.99;98478.19;4982326;28;20449;-96
2023/10/28 03:54:10;;;;;;;10.82;3.80;;;;;;;16.15;67.75;98497.31;4965658;28;20100;-96
2023/10/28 03:56:41;;;;;;;7.25;3.80;;;;;;;15.94;67.98;98470.88;4966650;28;20037;-95
2023/10/28 03:59:20;;;;;;;6.30;3.60;;;;;;;15.96;67.97;98474.06;4964963;28;20033;-96
2023/10/28 04:01:55;;;;;;;9.07;4.00;;;;;;;16.01;67.96;98483.16;4980385;28;20034;-93
2023/10/28 04:04:53;;;;;;;5.85;3.53;;;;;;;15.98;68.22;98483.78;4965785;28;20054;-95
2023/10/28 04:07:32;;;;;;;9.13;3.83;;;;;;;16.00;67.97;98484.25;4961374;28;20035;-96
2023/10/28 04:10:07;;;;;;;7.90;3.70;;;;;;;15.93;68.71;98488.28;4982593;28;20030;-95
2023/10/28 04:12:33;;;;;;;5.70;2.75;;;;;;;15.99;69.17;98498.97;4982729;28;20023;-92
2023/10/28 04:14:59;;;;;;;5.82;2.80;;;;;;;15.99;68.66;98510.63;4964828;28;20520;-95
2023/10/28 04:17:25;;;;;;;13.85;3.03;;;;;;;16.08;68.47;98508.69;4964405;28;20076;-93
2023/10/28 04:19:59;;;;;;;6.72;2.70;;;;;;;16.00;68.63;98498.66;4964422;28;20443;-93
2023/10/28 04:22:30;;;;;;;4.63;2.58;;;;;;;15.99;68.88;98497.03;4965151;28;20484;-96
2023/10/28 04:25:06;;;;;;;10.95;3.00;;;;;;;16.04;69.36;98504.22;4964386;28;20034;-94
2023/10/28 04:27:35;;;;;;;8.07;3.08;;;;;;;16.01;68.94;98500.22;4967686;28;20488;-96
2023/10/28 04:30:04;;;;;;;6.38;3.00;;;;;;;15.98;68.99;98500.06;4965512;28;20057;-94
2023/10/28 04:32:30;;;;;;;5.47;3.25;;;;;;;15.88;68.69;98498.53;4966301;28;20042;-95
2023/10/28 04:34:59;;;;;;;8.93;2.88;;;;;;;15.91;68.79;98493.22;4981161;28;20062;-95
2023/10/28 04:37:28;;;;;;;4.07;3.17;;;;;;;16.07;68.65;98519.88;4965028;28;20483;-95
2023/10/28 04:40:08;;;;;;;5.57;2.60;;;;;;;15.89;68.96;98511.75;4981525;28;20018;-95
2023/10/28 04:42:46;;;;;;;10.90;3.03;;;;;;;15.88;69.38;98514.81;4966399;28;20022;-95
2023/10/28 04:45:18;;;;;;;10.48;3.08;;;;;;;15.74;70.07;98512.31;4965770;28;20492;-95
2023/10/28 04:47:52;;;;;;;8.90;2.85;;;;;;;15.66;69.55;98508.47;4964348;28;20054;-95
2023/10/28 04:50:26;;;;;;;12.98;3.03;;;;;;;15.73;69.64;98529.72;4965808;28;20029;-96
2023/10/28 04:52:56;;;;;;;5.28;3.10;;;;;;;15.58;69.20;98503.84;4963267;28;20038;-94
2023/10/28 04:55:25;;;;;;;9.75;3.38;;;;;;;15.67;69.09;98520.13;4965478;28;20030;-95
2023/10/28 04:57:51;;;;;;;9.40;3.70;;;;;;;15.72;69.16;98528.13;4964154;28;20022;-95
2023/10/28 05:00:19;;;;;;;5.55;3.33;;;;;;;15.68;69.03;98524.41;4964839;28;20089;-95
2023/10/28 05:02:47;;;;;;;6.80;3.28;;;;;;;15.73;69.24;98537.88;4963999;28;20041;-95
2023/10/28 05:05:18;;;;;;;9.23;3.30;;;;;;;15.78;69.17;98537.69;4963424;28;20493;-93
2023/10/28 05:07:44;;;;;;;6.38;3.85;;;;;;;15.65;69.54;98530.50;4981782;28;20022;-95
2023/10/28 05:10:09;;;;;;;7.00;3.97;;;;;;;15.64;69.38;98523.47;4964394;28;20042;-95
2023/10/28 05:12:38;;;;;;;7.88;3.78;;;;;;;15.66;69.17;98537.50;4964943;28;20461;-96
2023/10/28 05:15:08;;;;;;;87.35;9.73;;;;;;;15.69;69.60;98547.75;4964182;28;20061;-94
2023/10/28 05:17:33;;;;;;;14.35;5.85;;;;;;;15.64;69.80;98550.63;4961304;28;20034;-95
2023/10/28 05:19:59;;;;;;;14.75;6.97;;;;;;;15.82;69.58;98586.69;4963692;28;20024;-95
2023/10/28 05:22:24;;;;;;;12.85;4.50;;;;;;;15.63;68.86;98566.09;4965695;28;20026;-94
2023/10/28 05:24:52;;;;;;;11.30;4.65;;;;;;;15.66;68.71;98568.16;4963063;28;20038;-94
2023/10/28 05:27:18;;;;;;;10.63;4.40;;;;;;;15.68;68.77;98582.22;4963267;28;20124;-95
2023/10/28 06:04:09;;;;;;;14.32;6.22;;;;;;;16.30;67.32;98651.59;6000357;22;20021;31
2023/10/28 06:20:33;;;;;;;6.47;4.00;;;;;;;16.61;66.24;98636.16;5176005;22;20065;-94
2023/10/28 06:23:21;;;;;;;14.00;4.20;;;;;;;16.76;65.29;98641.03;4983240;28;20034;-95
2023/10/28 06:25:49;;;;;;;5.80;2.75;;;;;;;16.75;65.69;98640.22;4995343;28;20030;-95
2023/10/28 06:28:18;;;;;;;9.55;3.10;;;;;;;16.74;65.81;98646.00;4979570;28;20029;-95
2023/10/28 06:31:18;;;;;;;11.95;3.28;;;;;;;16.76;65.59;98647.25;4980113;28;20108;-95
2023/10/28 06:34:12;;;;;;;13.02;3.45;;;;;;;16.75;65.84;98640.22;4983730;28;20037;-95
2023/10/28 06:36:43;;;;;;;7.85;3.97;;;;;;;16.90;65.29;98655.22;5008885;28;20038;-94
2023/10/28 06:39:13;;;;;;;16.08;4.00;;;;;;;16.87;65.56;98655.88;4978451;28;20029;-95
2023/10/28 06:41:39;;;;;;;8.75;4.55;;;;;;;16.86;65.59;98656.22;4979836;28;20097;-96
2023/10/28 06:54:20;;;;;;;8.48;3.88;;;;;;;17.23;64.27;98700.00;5043114;28;20045;-93
2023/10/28 06:57:04;;;;;;;7.22;3.38;;;;;;;17.39;64.13;98711.91;5130043;23;20037;-95
2023/10/28 06:59:54;;;;;;;4.90;3.03;;;;;;;17.34;63.40;98684.88;4926559;29;20067;-96
2023/10/28 07:02:21;;;;;;;9.05;3.00;;;;;;;17.41;63.07;98690.63;4911647;29;20064;-92
2023/10/28 07:05:19;;;;;;;10.23;5.15;;;;;;;17.53;62.81;98695.31;4881368;29;20035;-96
2023/10/28 07:07:54;;;;;;;9.07;2.80;;;;;;;17.55;62.85;98693.84;4894387;29;20041;-95
2023/10/28 07:18:08;;;;;;;6.47;2.45;;;;;;;17.78;62.23;98693.53;5914008;23;20054;-96
2023/10/28 07:20:34;;;;;;;10.20;4.28;;;;;;;17.82;62.13;98685.50;4955268;28;20397;-96
2023/10/28 07:23:03;;;;;;;8.95;2.97;;;;;;;17.98;61.93;98700.91;4953961;28;20070;-95
2023/10/28 07:26:03;;;;;;;9.40;2.60;;;;;;;18.11;61.53;98692.78;4958614;28;20094;-96
2023/10/28 07:28:49;;;;;;;12.77;2.67;;;;;;;18.13;60.83;98676.91;5013308;23;20051;-95
2023/10/28 07:31:37;;;;;;;6.25;3.78;;;;;;;18.42;60.31;98703.22;4966253;28;20098;-95
2023/10/28 07:34:07;;;;;;;10.80;4.10;;;;;;;18.44;60.57;98697.44;4969649;28;20033;-94
2023/10/28 07:36:36;;;;;;;8.38;4.35;;;;;;;18.65;60.59;98711.78;4950969;28;20042;-95
2023/10/28 07:39:09;;;;;;;6.07;3.35;;;;;;;18.67;60.29;98706.00;4966845;28;20023;-94
2023/10/28 07:42:03;;;;;;;8.63;2.70;;;;;;;18.64;59.62;98695.78;4951032;28;20031;-94
2023/10/28 09:42:39;;;;;;;2.80;1.40;;;;;;;21.73;47.62;98710.53;5015322;28;20085;-93
2023/10/28 09:45:08;;;;;;;7.97;1.63;;;;;;;21.78;47.46;98693.78;4987526;28;20113;-96
2023/10/28 09:48:22;;;;;;;2.72;1.52;;;;;;;21.97;46.57;98710.22;4970727;28;20010;-96
2023/10/28 09:50:56;;;;;;;9.50;2.35;;;;;;;22.14;46.52;98705.47;4984304;28;20032;-95
2023/10/28 09:53:36;;;;;;;4.72;1.75;;;;;;;22.28;46.31;98686.56;4970834;28;20026;-94
2023/10/28 09:56:07;;;;;;;3.50;1.55;;;;;;;22.38;46.66;98693.41;4969580;28;20045;-94
2023/10/28 09:58:44;;;;;;;6.88;1.83;;;;;;;22.39;46.32;98673.03;4969011;28;20056;-95
2023/10/28 10:01:36;;;;;;;5.90;1.40;;;;;;;22.60;45.79;98694.59;4987816;28;20033;-95
2023/10/28 10:04:07;;;;;;;9.90;2.33;;;;;;;22.64;46.38;98702.88;4993008;28;20050;-96
2023/10/28 10:06:42;;;;;;;13.73;1.70;;;;;;;22.51;46.45;98677.56;4977632;28;20048;-96
2023/10/28 10:09:47;;;;;;;5.78;2.60;;;;;;;22.49;45.85;98685.38;4969911;28;20391;-95
2023/10/28 10:12:34;;;;;;;4.60;1.98;;;;;;;22.43;45.44;98671.16;4974520;28;20022;-96
2023/10/28 10:15:03;;;;;;;3.85;1.55;;;;;;;22.37;45.76;98661.66;4987456;28;20112;-96
2023/10/28 10:18:13;;;;;;;3.92;1.70;;;;;;;22.43;46.18;98684.88;4969698;28;20120;-95
2023/10/28 10:21:14;;;;;;;6.70;1.50;;;;;;;22.37;45.86;98670.69;4929345;29;20076;-96
2023/10/28 10:24:34;;;;;;;4.05;1.80;;;;;;;22.37;46.01;98656.97;5016098;28;20503;-96
2023/10/28 10:27:34;;;;;;;;;;;;;;;;;;;;;
2023/10/28 10:30:08;;;;;;;4.53;1.48;;;;;;;22.53;44.99;98687.00;5007931;28;20078;-95
2023/10/28 10:33:00;;;;;;;3.22;1.58;;;;;;;22.40;45.17;98666.41;4985255;28;20471;-96
2023/10/28 10:35:30;;;;;;;9.32;1.58;;;;;;;22.49;45.28;98669.69;4976576;28;20038;-96
2023/10/28 10:38:05;;;;;;;8.43;2.70;;;;;;;22.48;45.21;98661.84;4988453;28;20038;-96
2023/10/28 10:41:12;;;;;;;4.55;1.80;;;;;;;22.54;45.51;98668.63;4986290;28;20443;-95
2023/10/28 10:43:57;;;;;;;6.45;1.90;;;;;;;22.50;44.86;98660.31;4964284;29;20059;-94
2023/10/28 10:46:23;;;;;;;5.38;2.00;;;;;;;22.53;45.13;98656.06;4940252;29;20070;-92
2023/10/28 10:48:49;;;;;;;7.72;2.97;;;;;;;22.58;45.02;98670.25;4922754;29;20039;-94
2023/10/28 10:51:15;;;;;;;6.82;2.53;;;;;;;22.46;45.26;98643.00;4923113;29;20035;-92
2023/10/28 10:53:44;;;;;;;4.30;1.52;;;;;;;22.59;45.66;98665.56;4923731;29;20039;-91
2023/10/28 10:56:21;;;;;;;4.43;1.60;;;;;;;22.67;44.76;98670.00;4907396;29;20567;-93
2023/10/28 10:58:47;;;;;;;3.90;1.55;;;;;;;22.73;44.00;98671.28;4922957;29;20043;-92
2023/10/28 11:01:13;;;;;;;3.90;1.65;;;;;;;22.73;44.25;98649.34;4937529;29;20031;-91
2023/10/28 11:03:39;;;;;;;3.88;1.58;;;;;;;22.77;44.44;98650.19;4939303;29;20090;-92
2023/10/28 11:06:06;;;;;;;4.85;2.50;;;;;;;22.84;44.30;98657.72;4925878;29;20501;-94
2023/10/28 11:09:35;;;;;;;4.10;1.67;;;;;;;23.02;43.81;98671.78;4914922;29;20055;-96
2023/10/28 11:12:14;;;;;;;6.13;1.40;;;;;;;23.09;44.02;98680.13;4961481;29;20027;-95
2023/10/28 11:15:25;;;;;;;7.88;1.67;;;;;;;22.82;44.17;98648.28;4984127;28;20497;-94
2023/10/28 11:18:11;;;;;;;;;;;;;;;;;;;;;
2023/10/28 11:23:49;;;;;;;5.47;1.63;;;;;;;22.92;44.45;98664.13;4989147;26;20070;-95
2023/10/28 11:26:22;;;;;;;4.57;1.50;;;;;;;22.73;44.18;98632.09;4957377;28;20034;-94
2023/10/28 11:28:48;;;;;;;12.70;1.90;;;;;;;22.84;44.24;98645.97;4978838;28;20056;-95
2023/10/28 11:31:56;;;;;;;10.18;2.00;;;;;;;22.76;43.85;98634.06;4972559;28;20027;-94
2023/10/28 11:35:29;;;;;;;;;;;;;;;;;;;;;
2023/10/28 11:38:15;;;;;;;;;;;;;;;;;;;;;
2023/10/28 11:41:28;;;;;;;5.13;1.17;;;;;;;23.07;41.85;98635.75;4920146;29;20083;-95
2023/10/28 11:54:51;;;;;;;3.58;1.10;;;;;;;23.53;40.03;98643.03;4873487;29;20048;-96
2023/10/28 12:11:57;;;;;;;4.40;1.10;;;;;;;23.37;40.14;98632.25;4997638;28;20059;-95
2023/10/28 12:14:23;;;;;;;1.80;0.80;;;;;;;23.53;39.95;98651.28;4972213;28;20038;-92
2023/10/28 12:16:53;;;;;;;5.82;1.17;;;;;;;23.42;40.49;98629.19;4951029;28;20404;-96
2023/10/28 12:19:19;;;;;;;6.32;1.50;;;;;;;23.54;40.29;98647.38;4951431;28;20074;-96
2023/10/28 12:21:44;;;;;;;3.88;1.05;;;;;;;23.50;39.92;98646.56;4946198;28;20076;-95
2023/10/28 12:24:36;;;;;;;3.30;1.05;;;;;;;23.53;39.64;98632.06;4925985;29;20047;-96
2023/10/28 12:27:16;;;;;;;3.65;1.00;;;;;;;23.55;39.59;98640.72;4893797;29;20510;-95
2023/10/28 12:29:45;;;;;;;3.95;1.25;;;;;;;23.51;39.53;98632.44;4908449;29;20446;-95
2023/10/28 12:32:15;;;;;;;4.90;1.00;;;;;;;23.56;39.28;98645.06;4893100;29;20070;-96
2023/10/28 12:34:43;;;;;;;4.22;1.13;;;;;;;23.51;39.48;98637.94;4908207;29;20036;-95
2023/10/28 12:37:09;;;;;;;4.28;1.05;;;;;;;23.61;39.00;98633.72;4907387;29;20027;-96
2023/10/28 12:39:44;;;;;;;3.90;1.77;;;;;;;23.55;39.32;98626.97;4907040;29;20099;-94
2023/10/28 12:42:18;;;;;;;3.13;0.90;;;;;;;23.53;39.36;98623.81;4893728;29;20028;-94
2023/10/28 12:44:50;;;;;;;2.65;1.05;;;;;;;23.49;38.69;98617.47;4894776;29;20040;-96
2023/10/28 12:53:38;;;;;;;3.78;1.20;;;;;;;23.62;39.17;98618.06;4840117;29;20520;-96
2023/10/28 12:56:51;;;;;;;2.40;1.20;;;;;;;23.63;38.93;98603.13;4938175;28;20121;-96
2023/10/28 12:59:20;;;;;;;8.75;1.17;;;;;;;23.63;38.69;98605.88;4983539;28;20041;-95
2023/10/28 13:02:16;;;;;;;4.03;1.20;;;;;;;23.63;38.56;98614.91;4951935;28;20027;-95
2023/10/28 13:04:42;;;;;;;3.65;0.98;;;;;;;23.67;38.50;98609.47;4951647;28;20142;-90
2023/10/28 13:07:19;;;;;;;4.00;1.17;;;;;;;23.83;38.74;98617.53;4995513;28;20049;-95
2023/10/28 13:09:58;;;;;;;;;;;;;;;;;;;;;
2023/10/28 13:12:58;;;;;;;;;;;;;;;;;;;;;
2023/10/28 13:15:24;;;;;;;2.85;1.05;;;;;;;23.78;38.44;98615.88;4953337;28;20114;-96
2023/10/28 13:24:53;;;;;;;4.35;1.05;;;;;;;23.75;38.46;98600.91;4891164;28;20031;-96
2023/10/28 13:27:22;;;;;;;7.65;1.70;;;;;;;23.91;38.99;98616.44;4929406;28;20034;-96
2023/10/28 13:29:52;;;;;;;5.70;1.08;;;;;;;24.03;38.42;98629.94;4963148;28;20030;-96
2023/10/28 13:32:24;;;;;;;5.63;1.20;;;;;;;23.95;37.90;98609.81;4932177;28;20019;-96
2023/10/28 13:35:17;;;;;;;4.35;1.30;;;;;;;23.88;37.98;98612.47;4932155;28;20118;-96
2023/10/28 13:37:49;;;;;;;3.53;0.90;;;;;;;23.93;37.88;98605.84;4947409;28;20034;-95
2023/10/28 13:40:29;;;;;;;6.07;1.20;;;;;;;23.85;38.02;98610.47;4930944;28;20026;-95
2023/10/28 13:42:55;;;;;;;4.75;0.90;;;;;;;23.78;38.18;98589.22;4946918;28;20007;-95
2023/10/28 13:45:21;;;;;;;4.32;1.35;;;;;;;23.77;38.78;98590.38;4930390;28;20464;-96
2023/10/28 13:47:51;;;;;;;4.85;1.30;;;;;;;23.75;38.14;98598.16;4930858;28;20027;-96
2023/10/28 13:50:22;;;;;;;4.18;1.50;;;;;;;23.80;38.12;98608.06;4946715;28;20023;-95
2023/10/28 13:52:48;;;;;;;2.72;1.08;;;;;;;23.82;38.41;98621.44;4931237;28;20034;-96
2023/10/28 13:55:32;;;;;;;3.42;1.10;;;;;;;23.72;38.25;98617.34;4928944;28;20077;-96
2023/10/28 13:58:00;;;;;;;4.20;1.20;;;;;;;23.75;38.87;98624.88;4932053;28;20113;-95
2023/10/28 14:00:29;;;;;;;7.15;1.98;;;;;;;23.57;38.76;98603.47;4931216;28;20477;-94
2023/10/28 14:02:55;;;;;;;5.25;1.63;;;;;;;23.59;38.97;98619.56;4930181;28;20093;-95
2023/10/28 14:05:46;;;;;;;6.90;1.27;;;;;;;23.49;38.84;98618.28;4928844;28;20505;-95
2023/10/28 14:08:16;;;;;;;5.30;1.23;;;;;;;23.46;38.83;98626.47;4932525;28;20500;-96
2023/10/28 14:10:48;;;;;;;3.70;1.35;;;;;;;23.36;39.32;98622.41;4939184;28;20162;-96
2023/10/28 14:13:22;;;;;;;4.57;1.10;;;;;;;23.34;39.18;98622.00;4949034;28;20027;-94
2023/10/28 14:16:26;;;;;;;2.53;1.17;;;;;;;23.30;39.78;98621.94;4949769;28;20077;-96
2023/10/28 14:19:04;;;;;;;6.28;1.50;;;;;;;23.39;39.71;98635.44;4964029;28;20093;-96
2023/10/28 14:21:32;;;;;;;5.43;1.55;;;;;;;23.28;39.66;98635.25;4949826;28;20401;-95
2023/10/28 14:24:03;;;;;;;3.05;1.30;;;;;;;23.30;39.39;98635.69;4947174;28;20061;-95
2023/10/28 14:26:29;;;;;;;3.22;1.20;;;;;;;23.13;39.50;98617.78;4949120;28;20180;-96
2023/10/28 14:31:39;;;;;;;10.65;1.83;;;;;;;23.18;40.50;98641.41;4969277;28;20440;-95
2023/10/28 14:34:07;;;;;;;6.70;2.38;;;;;;;23.21;41.06;98665.38;4964662;28;20058;-95
2023/10/28 14:36:33;;;;;;;12.90;2.28;;;;;;;22.97;41.94;98652.81;4947334;28;20485;-96
2023/10/28 14:39:03;;;;;;;3.78;1.27;;;;;;;22.91;40.97;98660.59;4952011;28;20088;-96
2023/10/28 14:41:35;;;;;;;8.15;1.67;;;;;;;22.88;41.06;98660.53;4968556;28;20049;-96
2023/10/28 14:44:12;;;;;;;4.85;1.35;;;;;;;22.84;40.72;98665.19;4967250;28;20030;-95
2023/10/28 14:46:41;;;;;;;10.13;1.98;;;;;;;22.70;42.47;98665.75;4952434;28;20099;-96
2023/10/28 14:49:11;;;;;;;3.40;1.52;;;;;;;22.82;41.52;98686.72;4952055;28;20037;-96
2023/10/28 14:51:56;;;;;;;4.78;1.73;;;;;;;22.61;43.43;98674.22;4955281;28;20070;-96
2023/10/28 14:54:21;;;;;;;6.15;2.33;;;;;;;22.54;42.86;98674.91;4968144;28;20026;-96
2023/10/28 14:56:55;;;;;;;3.95;1.25;;;;;;;22.43;41.92;98678.59;4950589;28;20057;-94
2023/10/28 14:59:33;;;;;;;;;;;;;;;;;;;;;
2023/10/28 15:02:01;;;;;;;5.72;1.50;;;;;;;22.50;41.53;98697.94;4970631;28;20022;-93
2023/10/28 15:04:27;;;;;;;8.23;1.65;;;;;;;22.42;42.83;98691.53;4952841;28;20085;-95
2023/10/28 15:06:56;;;;;;;4.32;1.38;;;;;;;22.43;41.56;98693.09;4952157;28;20026;-94
2023/10/28 15:09:26;;;;;;;3.08;1.00;;;;;;;22.44;40.98;98696.66;4967400;28;20543;-95
2023/10/28 15:11:58;;;;;;;1.98;1.05;;;;;;;22.29;42.00;98684.66;4950592;28;20053;-95
2023/10/28 15:14:26;;;;;;;4.18;1.30;;;;;;;22.31;41.91;98691.34;4953015;28;20493;-95
2023/10/28 15:17:17;;;;;;;13.20;2.33;;;;;;;22.23;42.36;98686.06;4953053;28;20026;-96
2023/10/28 15:19:46;;;;;;;16.02;1.73;;;;;;;22.17;43.08;98689.09;4956746;28;20061;-96
2023/10/28 15:22:12;;;;;;;4.65;1.58;;;;;;;22.07;43.67;98692.41;4952858;28;20026;-96
2023/10/28 15:24:39;;;;;;;5.35;1.30;;;;;;;22.07;42.36;98706.13;4952388;28;20049;-96
2023/10/28 15:27:08;;;;;;;6.05;1.48;;;;;;;22.11;42.68;98726.19;4951947;28;20050;-96
2023/10/28 15:29:37;;;;;;;11.18;2.00;;;;;;;21.95;42.64;98707.06;4952400;28;20476;-96
2023/10/28 15:32:08;;;;;;;5.13;1.70;;;;;;;22.04;42.47;98725.22;4985099;28;20022;-95
2023/10/28 15:34:38;;;;;;;8.93;2.45;;;;;;;22.00;43.09;98725.97;4953543;28;20062;-96
2023/10/28 15:37:16;;;;;;;;;;;;;;;;;;;;;
2023/10/28 15:39:45;;;;;;;6.72;1.65;;;;;;;21.99;42.38;98720.84;4970484;28;20430;-95
2023/10/28 15:42:13;;;;;;;5.28;1.40;;;;;;;21.93;41.87;98722.28;4967667;28;20022;-95
2023/10/28 15:44:43;;;;;;;3.90;1.33;;;;;;;21.83;42.18;98731.88;4951857;28;20150;-95
2023/10/28 15:47:12;;;;;;;4.68;1.58;;;;;;;21.84;41.99;98736.22;4953215;28;20026;-96
2023/10/28 15:49:41;;;;;;;4.30;1.60;;;;;;;21.92;42.59;98743.44;4950993;28;20026;-96
2023/10/28 15:52:13;;;;;;;8.00;1.70;;;;;;;21.83;42.46;98745.59;4950748;28;20026;-96
2023/10/28 15:55:10;;;;;;;6.88;1.70;;;;;;;22.00;42.65;98778.06;4952492;28;20042;-96
2023/10/28 15:57:36;;;;;;;6.50;2.10;;;;;;;21.87;43.03;98773.06;4950033;28;20038;-96
2023/10/28 16:00:05;;;;;;;6.85;2.20;;;;;;;21.79;43.12;98781.13;4953203;28;20066;-96